Latest Coastal Weather Observations for Horn Island

IDQ60701

Issued at 10:01 am EST Sunday 14 February 2016 (issued every 10 minutes, with the page automatically refreshed every 10 minutes)

About coastal observations | Map of coastal stations | Coastal observations for QLD | Marine services | Other Formats
Station Details ID: 027058 Name: HORN ISLAND Lat: -10.58 Lon: 142.29 Height: 4.0 m
Data from the previous 72 hours. | See also: Recent months at Horn Island
Date/Time
EST
Temp

°C
Wind Pressure Rain
since 9am
mm
Weather Cloud Vis
km
Sea
Height
m
Swell
Dir
 
Speed
knots
Gust
knots
hPa Trend Height
m
Period
s
Dir
14/10:00am 29.6 NNW 10 15 1009.6 - 0.0 - Partly cloudy 10 - - - -
14/09:30am 29.4 NNW 10 14 1009.5 - 0.0 - Partly cloudy 10 - - - -
14/09:00am 28.7 NNW 9 13 1009.6 - 0.2 - Mostly clear 10 - - - -
14/08:47am 28.3 NNW 9 12 1009.6 - 0.2 - Partly cloudy 10 - - - -
14/08:30am 28.2 NNW 9 12 1009.2 - 0.2 - Partly cloudy 10 - - - -
14/08:18am 27.8 NW 9 14 1008.9 - 0.2 - Partly cloudy 10 - - - -
14/08:00am 27.8 NNW 9 12 1008.7 - 0.2 - Partly cloudy 10 - - - -
14/07:49am 27.6 NW 8 10 1008.7 - 0.2 - Partly cloudy 10 - - - -
14/07:30am 27.3 NW 8 11 1008.6 - 0.2 - Partly cloudy 10 - - - -
14/07:12am 27.3 NNW 8 11 1008.5 - 0.2 - Partly cloudy 10 - - - -
14/07:00am 26.9 NNW 7 10 1008.2 - 0.2 - Partly cloudy 10 - - - -
14/06:30am 26.2 NNW 5 8 1007.7 - 0.2 - Partly cloudy 10 - - - -
14/06:19am 25.6 NW 3 6 1007.6 - 0.2 - Partly cloudy 10 - - - -
14/06:06am 25.2 CALM 0 0 1007.3 - 0.2 - Partly cloudy 10 - - - -
14/06:00am 25.1 CALM 0 0 1007.2 - 0.2 - Partly cloudy 10 - - - -
14/05:30am 25.1 CALM 0 0 1006.5 - 0.2 - - 10 - - - -
14/05:00am 25.3 CALM 0 0 1006.3 - 0.2 - - 10 - - - -
14/04:30am 25.6 CALM 0 0 1006.2 - 0.2 - Cloudy 10 - - - -
14/04:00am 25.7 CALM 0 0 1006.2 - 0.2 - Cloudy 10 - - - -
14/03:30am 25.8 CALM 0 3 1006.3 - 0.2 - Cloudy 10 - - - -
14/03:00am 25.2 CALM 0 0 1006.4 - 0.2 - Cloudy 10 - - - -
14/02:30am 24.9 CALM 0 0 1006.5 - 0.2 - Cloudy 10 - - - -
14/02:00am 25.0 SSE 3 4 1006.7 - 0.2 - Partly cloudy 10 - - - -
14/01:30am 24.9 SE 3 4 1006.8 - 0.2 - Partly cloudy 10 - - - -
14/01:00am 25.3 CALM 0 0 1007.0 - 0.2 - Partly cloudy 10 - - - -
14/12:30am 25.4 CALM 0 0 1007.7 - 0.2 - Partly cloudy 10 - - - -
14/12:00am 25.7 CALM 0 0 1008.1 - 0.2 - Mostly cloudy 10 - - - -
 
Date/Time
EST
Temp

°C
Wind Pressure Rain
since 9am
mm
Weather Cloud Vis
km
Sea
Height
m
Swell
Dir
 
Speed
knots
Gust
knots
hPa Trend Height
m
Period
s
Dir
13/11:30pm 25.9 CALM 0 0 1008.2 - 0.2 - Partly cloudy 10 - - - -
13/11:00pm 26.2 CALM 0 0 1008.5 - 0.2 - Partly cloudy 10 - - - -
13/10:30pm 26.3 CALM 0 0 1008.3 - 0.2 - - 10 - - - -
13/10:00pm 26.6 N 3 5 1008.5 - 0.2 - - 10 - - - -
13/09:30pm 26.5 NNW 5 7 1008.2 - 0.2 - Partly cloudy 10 - - - -
13/09:23pm 26.4 N 5 8 1008.2 - 0.2 - Partly cloudy 10 - - - -
13/09:00pm 26.6 N 7 9 1008.1 - 0.2 - Cloudy 10 - - - -
13/08:52pm 26.7 N 7 8 1007.9 - 0.2 - Partly cloudy 10 - - - -
13/08:30pm 26.7 N 7 10 1007.5 - 0.2 - Partly cloudy 10 - - - -
13/08:00pm 26.5 NE 4 6 1007.3 - 0.2 - Partly cloudy 10 - - - -
13/07:30pm 26.8 NNW 4 6 1006.8 - 0.2 - Partly cloudy 10 - - - -
13/07:00pm 26.8 NE 6 9 1006.6 - 0.0 - Cloudy 10 - - - -
13/06:30pm 26.3 N 6 9 1006.5 - 0.0 - Cloudy 10 - - - -
13/06:00pm 25.7 NNE 9 13 1006.1 - 0.0 - Cloudy 10 - - - -
13/05:30pm 25.9 NNE 8 11 1005.8 - 0.0 - Cloudy 10 - - - -
13/05:00pm 24.9 N 12 16 1005.9 - 0.0 - Cloudy 10 - - - -
13/04:30pm 25.2 N 16 21 1005.9 - 0.0 - Cloudy 10 - - - -
13/04:00pm 25.7 N 12 17 1006.0 - 0.0 - Partly cloudy 10 - - - -
13/03:30pm 26.3 NNW 14 22 1006.1 - 0.0 - Partly cloudy 10 - - - -
13/03:10pm 27.3 NW 10 16 1006.2 - 0.0 - Partly cloudy 10 - - - -
13/03:00pm 27.2 NNW 10 15 1006.3 - 0.0 - Partly cloudy 10 - - - -
13/02:30pm 27.6 NNW 10 14 1006.6 - 0.0 - Partly cloudy 10 - - - -
13/02:10pm 27.7 NW 10 16 1006.8 - 0.0 - Partly cloudy 10 - - - -
13/02:00pm 27.7 NW 12 17 1006.9 - 0.0 - Partly cloudy 10 - - - -
13/01:58pm 27.7 NW 12 17 1007.0 - 0.0 - Partly cloudy 10 - - - -
13/01:48pm 27.5 NW 12 17 1007.1 - 0.0 - Partly cloudy 10 - - - -
13/01:45pm 27.7 NW 12 17 1007.1 - 0.0 - Partly cloudy 10 - - - -
13/01:30pm 28.0 NW 13 21 1007.1 - 0.0 - Partly cloudy 10 - - - -
13/01:23pm 28.2 NW 13 19 1007.1 - 0.0 - Partly cloudy 10 - - - -
13/01:00pm 28.7 NW 11 16 1007.1 - 0.0 - Partly cloudy 10 - - - -
13/12:43pm 28.5 NW 10 16 1007.3 - 0.0 - Partly cloudy 10 - - - -
13/12:30pm 28.0 NW 8 12 1007.6 - 0.0 - Partly cloudy 10 - - - -
13/12:20pm 28.3 WNW 7 11 1007.8 - 0.0 - Partly cloudy 10 - - - -
13/12:00pm 28.0 WNW 7 9 1008.1 - 0.0 - Cloudy 10 - - - -
13/11:35am 27.6 WNW 8 11 1008.3 - 0.0 - Partly cloudy 10 - - - -
13/11:30am 27.6 WNW 8 11 1008.3 - 0.0 - Partly cloudy 10 - - - -
13/11:00am 27.2 W 5 7 1008.9 - 0.0 - Partly cloudy 10 - - - -
13/10:30am 26.9 WNW 7 9 1008.9 - 0.0 - Partly cloudy 10 - - - -
13/10:28am 27.0 NW 7 10 1008.9 - 0.0 - Partly cloudy 10 - - - -
13/10:00am 26.7 NW 7 9 1009.2 - 0.0 - Partly cloudy 10 - - - -
13/09:55am 26.9 NW 6 9 1009.2 - 0.0 - Partly cloudy 10 - - - -
13/09:30am 26.6 NNW 9 12 1009.1 - 0.0 - Partly cloudy 10 - - - -
13/09:00am 26.5 NNW 6 10 1008.9 - 134.4 - Cloudy 10 - - - -
13/08:30am 26.2 NNW 7 9 1009.0 - 134.4 - Partly cloudy 10 - - - -
13/08:26am 26.4 NNW 8 10 1009.0 - 134.4 - Partly cloudy 10 - - - -
13/08:04am 26.1 NNW 9 12 1008.9 - 134.4 - Partly cloudy 10 - - - -
13/08:00am 26.1 NNW 9 13 1008.8 - 134.4 - Partly cloudy 10 - - - -
13/07:30am 26.0 N 5 7 1008.5 - 134.4 - Partly cloudy 10 - - - -
13/07:25am 26.0 NNW 2 7 1008.3 - 134.4 - Partly cloudy 10 - - - -
13/07:00am 25.7 NNW 1 4 1007.6 - 134.4 - Partly cloudy 10 - - - -
13/06:30am 25.7 NNW 7 9 1007.5 - 134.4 - Partly cloudy 10 - - - -
13/06:00am 25.7 N 6 8 1007.1 - 134.2 - Cloudy 10 - - - -
13/05:49am 25.5 N 4 6 1007.0 - 134.2 - Partly cloudy 10 - - - -
13/05:30am 25.5 NNE 4 5 1006.6 - 133.8 - Partly cloudy 10 - - - -
13/05:16am 25.5 N 5 6 1006.7 - 133.8 - Partly cloudy 10 - - - -
13/05:07am 25.4 N 5 7 1006.7 - 133.8 - Partly cloudy 10 - - - -
13/05:00am 25.3 NNE 5 6 1006.7 - 133.8 - Partly cloudy 7 - - - -
13/04:53am 25.3 NNE 5 7 1006.5 - 133.8 - Partly cloudy 5 - - - -
13/04:49am 25.3 N 5 7 1006.4 - 133.6 - Partly cloudy 7 - - - -
13/04:41am 25.2 N 4 6 1006.3 - 133.4 - Partly cloudy 6 - - - -
13/04:30am 25.2 NNE 5 6 1006.2 - 132.8 - Partly cloudy 3 - - - -
13/04:17am 25.4 N 4 5 1006.4 - 130.2 - Partly cloudy 2 - - - -
13/04:00am 25.4 ESE 3 4 1006.2 - 126.2 - Partly cloudy 4 - - - -
13/03:52am 25.4 ESE 4 7 1006.1 - 125.2 - Partly cloudy 5 - - - -
13/03:51am 25.4 ESE 5 7 1006.1 - 125.0 - Partly cloudy 6 - - - -
13/03:30am 25.3 NNE 1 5 1006.1 - 123.4 - Partly cloudy 1 - - - -
13/03:00am 25.2 NNW 3 5 1005.9 - 116.0 - Cloudy 2 - - - -
13/02:50am 25.3 SW 1 4 1006.0 - 113.0 - Partly cloudy 0.7 - - - -
13/02:30am 25.4 S 6 10 1006.0 - 99.8 - Partly cloudy 1 - - - -
13/02:00am 25.7 SSW 8 11 1005.8 - 77.4 - Partly cloudy 1 - - - -
13/01:30am 26.3 S 7 12 1006.1 - 44.4 - Partly cloudy 0.6 - - - -
13/01:00am 27.1 WSW 4 9 1006.3 - 16.8 - Partly cloudy 5 - - - -
13/12:30am 27.0 WNW 5 7 1006.8 - 15.0 - Partly cloudy 10 - - - -
13/12:00am 26.9 W 3 4 1007.3 - 15.0 - Mostly cloudy 10 - - - -
 
Date/Time
EST
Temp

°C
Wind Pressure Rain
since 9am
mm
Weather Cloud Vis
km
Sea
Height
m
Swell
Dir
 
Speed
knots
Gust
knots
hPa Trend Height
m
Period
s
Dir
12/11:30pm 27.0 W 4 6 1007.5 - 14.8 - - 10 - - - -
12/11:00pm 27.1 WNW 5 7 1007.5 - 14.8 - Partly cloudy 10 - - - -
12/10:30pm 26.8 CALM 0 4 1007.6 - 14.8 - Partly cloudy 10 - - - -
12/10:00pm 26.8 CALM 0 0 1007.8 - 14.8 - Partly cloudy 10 - - - -
12/09:30pm 26.8 SSW 4 5 1007.7 - 14.8 - Partly cloudy 10 - - - -
12/09:00pm 26.8 WSW 3 5 1007.8 - 14.8 - Mostly clear 10 - - - -
12/08:30pm 26.7 WSW 3 4 1007.6 - 14.8 - Partly cloudy 10 - - - -
12/08:00pm 26.4 W 3 5 1007.1 - 14.8 - Partly cloudy 10 - - - -
12/07:30pm 26.0 WSW 2 4 1006.9 - 14.6 - Partly cloudy 9 - - - -
12/07:17pm 25.9 S 4 6 1006.8 - 14.4 - Partly cloudy 9 - - - -
12/07:13pm 25.9 S 4 6 1006.8 - 14.4 - Partly cloudy 8 - - - -
12/07:00pm 25.8 S 7 8 1006.9 - 13.8 - Partly cloudy 5 - - - -
12/06:58pm 25.8 SSW 7 9 1006.8 - 13.8 - Partly cloudy 4 - - - -
12/06:51pm 26.0 SSW 8 15 1006.8 - 12.8 - Partly cloudy 3 - - - -
12/06:40pm 26.6 WSW 6 9 1006.8 - 10.0 - Partly cloudy 3 - - - -
12/06:30pm 26.7 W 6 12 1006.5 - 7.6 - Partly cloudy 5 - - - -
12/06:23pm 26.9 W 5 9 1006.5 - 7.4 - Partly cloudy 5 - - - -
12/06:06pm 26.9 WSW 5 7 1006.2 - 6.4 - Partly cloudy 10 - - - -
12/06:00pm 26.9 W 4 8 1006.2 - 6.4 - Cloudy 10 - - - -
12/05:47pm 27.1 W 8 17 1006.4 - 5.8 - Partly cloudy 5 - - - -
12/05:30pm 27.6 W 7 11 1006.3 - 4.0 - Partly cloudy 10 - - - -
12/05:00pm 27.4 W 8 13 1005.9 - 4.0 - Partly cloudy 6 - - - -
12/04:30pm 28.3 W 9 13 1005.7 - 3.2 - Partly cloudy 10 - - - -
12/04:00pm 28.2 WNW 9 13 1005.6 - 3.2 - Partly cloudy 10 - - - -
12/03:30pm 28.0 WNW 10 14 1005.6 - 3.2 - Partly cloudy 10 - - - -
12/03:00pm 28.2 WNW 11 16 1005.9 - 3.2 - Cloudy 10 - - - -
12/02:30pm 28.1 W 11 18 1006.2 - 3.2 - Partly cloudy 10 - - - -
12/02:00pm 27.9 WNW 11 19 1006.3 - 3.2 - Partly cloudy 10 - - - -
12/01:31pm 27.8 WNW 11 20 1006.6 - 3.2 - Partly cloudy 10 - - - -
12/01:30pm 27.8 WNW 11 20 1006.7 - 3.2 - Partly cloudy 10 - - - -
12/01:18pm 27.7 WNW 11 16 1006.9 - 3.2 - Partly cloudy 10 - - - -
12/01:07pm 27.4 WNW 10 18 1007.1 - 3.2 - Partly cloudy 4 - - - -
12/01:00pm 27.3 WNW 11 18 1007.3 - 3.2 - Partly cloudy 3 - - - -
12/12:58pm 27.3 WNW 11 18 1007.4 - 2.6 - Partly cloudy 5 - - - -
12/12:30pm 27.7 WNW 12 22 1007.6 - 1.2 - Partly cloudy 10 - - - -
12/12:23pm 28.4 WNW 11 16 1007.7 - 1.2 - Partly cloudy 10 - - - -
12/12:00pm 27.9 WNW 10 16 1008.1 - 1.2 - Partly cloudy 10 - - - -
12/11:40am 27.8 NW 10 18 1008.3 - 1.2 - Partly cloudy 10 - - - -
12/11:30am 27.4 WNW 12 22 1008.5 - 1.2 - Partly cloudy 5 - - - -
12/11:29am 27.3 WNW 13 22 1008.5 - 1.2 - Partly cloudy 6 - - - -
12/11:08am 27.9 WNW 10 14 1008.4 - 0.8 - Partly cloudy 10 - - - -
12/11:00am 27.6 WNW 11 15 1008.6 - 0.8 - Partly cloudy 10 - - - -
12/10:54am 27.6 WNW 12 17 1008.6 - 0.8 - Partly cloudy 10 - - - -
12/10:37am 27.3 WNW 11 20 1009.0 - 0.8 - Partly cloudy 5 - - - -
12/10:30am 28.0 NW 9 15 1009.1 - 0.0 - Partly cloudy 10 - - - -
12/10:22am 27.9 NW 9 14 1009.3 - 0.0 - Partly cloudy 10 - - - -
12/10:19am 27.9 NW 8 12 1009.3 - 0.0 - Partly cloudy 10 - - - -
12/10:01am 27.6 WNW 11 16 1009.3 - 0.0 - Partly cloudy 10 - - - -
12/10:00am 27.6 WNW 11 16 1009.3 - 0.0 - Partly cloudy 10 - - - -
12/09:56am 27.5 WNW 9 16 1009.3 - 0.0 - Partly cloudy 10 - - - -
12/09:43am 27.5 WNW 8 13 1009.4 - 0.0 - Partly cloudy 10 - - - -
12/09:39am 27.4 NW 9 13 1009.4 - 0.0 - Partly cloudy 10 - - - -
12/09:30am 27.1 NW 9 13 1009.5 - 0.0 - Partly cloudy 10 - - - -
12/09:20am 27.0 NW 8 12 1009.4 - 0.0 - Partly cloudy 10 - - - -
12/09:00am 26.8 NNW 11 15 1009.4 - 79.0 - Cloudy 10 - - - -
12/08:36am 26.9 NW 10 16 1009.2 - 78.8 - Partly cloudy 10 - - - -
12/08:30am 26.6 NNW 11 16 1009.2 - 78.8 - Partly cloudy 10 - - - -
12/08:29am 26.6 NNW 11 16 1009.2 - 78.8 - Partly cloudy 10 - - - -
12/08:00am 26.1 NW 10 18 1008.9 - 71.8 - Partly cloudy 2 - - - -
12/07:32am 26.7 NNW 10 16 1008.4 - 62.4 - Partly cloudy 5 - - - -
12/07:30am 26.6 NW 9 16 1008.3 - 62.2 - Partly cloudy 6 - - - -
12/07:26am 26.1 NW 9 13 1008.4 - 62.0 - Partly cloudy 7 - - - -
12/07:02am 25.9 WNW 11 20 1008.2 - 60.2 - Partly cloudy 2 - - - -
12/07:00am 25.9 WNW 11 20 1008.2 - 59.4 - Partly cloudy 3 - - - -
12/06:57am 26.0 WNW 11 17 1008.1 - 57.6 - Partly cloudy 5 - - - -
12/06:43am 27.6 NNW 11 16 1007.7 - 56.2 - Partly cloudy 10 - - - -
12/06:30am 27.1 NNW 10 14 1007.7 - 56.2 - Partly cloudy 10 - - - -
12/06:29am 27.2 NNW 10 14 1007.8 - 56.2 - Partly cloudy 10 - - - -
12/06:22am 27.3 NNW 10 15 1007.6 - 56.2 - Partly cloudy 10 - - - -
12/06:05am 27.1 NNW 11 17 1007.4 - 56.0 - Partly cloudy 5 - - - -
12/06:00am 27.1 NNW 9 16 1007.3 - 55.2 - Cloudy 10 - - - -
12/05:59am 27.1 NNW 8 14 1007.3 - 55.2 - Partly cloudy 10 - - - -
12/05:53am 26.5 NW 3 7 1007.2 - 55.2 - Partly cloudy 9 - - - -
12/05:31am 25.8 W 4 7 1007.2 - 54.2 - Partly cloudy 2 - - - -
12/05:30am 25.8 W 3 6 1007.2 - 53.6 - Partly cloudy 2 - - - -
12/05:00am 25.5 NNW 5 9 1006.9 - 48.2 - Partly cloudy 2 - - - -
12/04:53am 25.4 NNE 8 11 1007.0 - 44.4 - Partly cloudy 5 - - - -
12/04:52am 25.3 NNE 8 11 1007.0 - 43.8 - Partly cloudy 9 - - - -
12/04:48am 25.4 NNE 10 16 1006.8 - 43.8 - Partly cloudy 7 - - - -
12/04:30am 25.9 N 11 16 1006.8 - 43.6 - Partly cloudy 3 - - - -
12/04:10am 26.2 E 5 7 1006.8 - 38.4 - Partly cloudy 5 - - - -
12/04:03am 26.1 ENE 4 6 1006.8 - 36.8 - Partly cloudy 10 - - - -
12/04:00am 26.0 N 4 7 1006.8 - 36.8 - Partly cloudy 10 - - - -
12/03:54am 25.9 SSW 5 10 1006.7 - 36.8 - Partly cloudy 6 - - - -
12/03:50am 25.7 S 7 11 1006.5 - 36.8 - Partly cloudy 4 - - - -
12/03:39am 25.9 SW 8 13 1006.6 - 34.4 - Partly cloudy 1 - - - -
12/03:30am 25.7 WSW 11 13 1006.9 - 28.8 - Partly cloudy 3 - - - -
12/03:00am 26.8 S 5 6 1006.7 - 21.6 - Cloudy 5 - - - -
12/02:34am 27.1 N 5 7 1007.1 - 16.8 - Partly cloudy 2 - - - -
12/02:30am 27.2 N 6 7 1007.2 - 16.2 - Partly cloudy 2 - - - -
12/02:22am 27.3 N 5 7 1007.2 - 12.6 - Partly cloudy 5 - - - -
12/02:14am 27.4 N 5 6 1007.2 - 11.6 - Partly cloudy 10 - - - -
12/02:00am 27.4 N 5 7 1007.4 - 11.6 - Partly cloudy 10 - - - -
12/01:45am 27.3 NNW 6 7 1007.4 - 11.4 - Partly cloudy 10 - - - -
12/01:30am 27.2 NNW 7 9 1007.4 - 11.4 - Partly cloudy 10 - - - -
12/01:27am 27.2 NNW 6 9 1007.5 - 11.4 - Partly cloudy 10 - - - -
12/01:00am 26.9 NNW 4 6 1007.6 - 11.4 - - 10 - - - -
12/12:30am 26.7 CALM 0 0 1007.9 - 11.4 - - 10 - - - -
12/12:00am 26.7 CALM 0 0 1008.2 - 11.4 - - 10 - - - -
 
Date/Time
EST
Temp

°C
Wind Pressure Rain
since 9am
mm
Weather Cloud Vis
km
Sea
Height
m
Swell
Dir
 
Speed
knots
Gust
knots
hPa Trend Height
m
Period
s
Dir
11/11:30pm 26.3 CALM 0 0 1008.4 - 11.4 - - 10 - - - -
11/11:00pm 26.4 SSE 4 5 1008.6 - 11.4 - Partly cloudy 10 - - - -
11/10:30pm 26.4 CALM 0 4 1008.7 - 11.4 - Partly cloudy 10 - - - -
11/10:00pm 26.2 E 4 6 1008.6 - 11.4 - Partly cloudy 10 - - - -
11/09:30pm 25.9 NE 5 7 1008.5 - 11.4 - Partly cloudy 10 - - - -
11/09:00pm 25.8 S 4 5 1008.3 - 11.0 - Mostly clear 10 - - - -
11/08:30pm 26.0 WSW 2 3 1008.2 - 9.8 - Partly cloudy 6 - - - -
11/08:28pm 25.9 WSW 2 3 1008.1 - 9.6 - Partly cloudy 6 - - - -
11/08:07pm 25.8 SW 5 7 1007.9 - 8.8 - Partly cloudy 5 - - - -
11/08:00pm 25.8 SSW 5 7 1007.8 - 8.4 - Partly cloudy 9 - - - -
11/07:58pm 25.8 SSW 5 7 1007.8 - 8.2 - Partly cloudy 9 - - - -
11/07:41pm 25.6 W 9 15 1007.6 - 7.6 - Partly cloudy 5 - - - -
11/07:40pm 25.6 W 9 15 1007.6 - 7.6 - Partly cloudy 5 - - - -
11/07:30pm 26.3 WSW 9 14 1007.6 - 6.8 - Partly cloudy 8 - - - -
11/07:27pm 26.2 WSW 8 11 1007.5 - 6.4 - Partly cloudy 7 - - - -
11/07:25pm 26.2 WSW 8 11 1007.5 - 6.4 - Partly cloudy 8 - - - -
11/07:22pm 26.2 WSW 8 12 1007.4 - 6.4 - Partly cloudy 8 - - - -
11/07:01pm 27.0 SE 6 13 1007.1 - 4.4 - Partly cloudy 4 - - - -
11/07:00pm 27.2 ESE 5 13 1007.1 - 3.6 - Partly cloudy 6 - - - -
11/06:30pm 27.4 SSE 5 6 1006.4 - 1.8 - Partly cloudy 10 - - - -
11/06:06pm 27.5 WSW 5 7 1006.0 - 1.8 - Partly cloudy 10 - - - -
11/06:00pm 27.8 SW 6 7 1005.9 - 1.8 - Cloudy 10 - - - -
11/05:42pm 27.7 WNW 8 14 1005.7 - 1.4 - Partly cloudy 5 - - - -
11/05:30pm 29.7 NW 7 10 1005.3 - 0.0 - Partly cloudy 10 - - - -
11/05:00pm 30.5 WNW 7 11 1004.8 - 0.0 - Partly cloudy 10 - - - -
11/04:30pm 30.5 W 7 10 1004.4 - 0.0 - - 10 - - - -
11/04:00pm 31.2 W 10 14 1004.1 - 0.0 - Partly cloudy 10 - - - -
11/03:30pm 31.4 W 9 14 1004.4 - 0.0 - Partly cloudy 10 - - - -
11/03:00pm 31.6 W 10 15 1004.7 - 0.0 - - 10 - - - -
11/02:30pm 31.2 W 10 16 1005.1 - 0.0 - - 10 - - - -
11/02:00pm 30.9 W 10 15 1005.4 - 0.0 - Partly cloudy 10 - - - -
11/01:30pm 30.4 NNW 8 12 1005.6 - 0.0 - Partly cloudy 10 - - - -
11/01:00pm 29.9 WNW 10 15 1006.5 - 0.0 - Partly cloudy 10 - - - -
11/12:30pm 29.2 NW 8 11 1007.0 - 0.0 - Partly cloudy 10 - - - -
11/12:00pm 30.2 WNW 9 15 1007.1 - 0.0 - Cloudy 10 - - - -
11/11:30am 30.1 W 9 13 1007.6 - 0.0 - - 10 - - - -
11/11:00am 29.4 W 7 12 1008.0 - 0.0 - Partly cloudy 10 - - - -
11/10:30am 28.4 WNW 7 11 1008.4 - 0.0 - - 10 - - - -

Other Formats:

Comma delimited format used in spreadsheet applications
http://www.bom.gov.au/fwo/IDQ60701/IDQ60701.94174.axf

JavaScript Object Notation format (JSON) in row-major order
http://www.bom.gov.au/fwo/IDQ60701/IDQ60701.94174.json